sensor_id;sensor_type;location;lat;lon;timestamp;temperature;humidity
53045;DHT22;38930;52.766;6.884;2022-11-04T00:01:42;11.30;99.90
53045;DHT22;38930;52.766;6.884;2022-11-04T00:04:09;11.20;99.90
53045;DHT22;38930;52.766;6.884;2022-11-04T00:06:35;11.20;99.90
53045;DHT22;38930;52.766;6.884;2022-11-04T00:09:03;11.10;99.90
53045;DHT22;38930;52.766;6.884;2022-11-04T00:11:29;11.10;99.90
53045;DHT22;38930;52.766;6.884;2022-11-04T00:14:14;11.10;99.90
53045;DHT22;38930;52.766;6.884;2022-11-04T00:16:40;11.10;99.90
53045;DHT22;38930;52.766;6.884;2022-11-04T00:19:24;11.00;99.90
53045;DHT22;38930;52.766;6.884;2022-11-04T00:21:50;10.90;99.90
53045;DHT22;38930;52.766;6.884;2022-11-04T00:24:34;10.90;99.90
53045;DHT22;38930;52.766;6.884;2022-11-04T00:27:20;10.90;99.90
53045;DHT22;38930;52.766;6.884;2022-11-04T00:30:09;10.80;99.90
53045;DHT22;38930;52.766;6.884;2022-11-04T00:32:35;10.70;99.90
53045;DHT22;38930;52.766;6.884;2022-11-04T00:35:19;10.70;99.90
53045;DHT22;38930;52.766;6.884;2022-11-04T00:37:45;10.60;99.90
53045;DHT22;38930;52.766;6.884;2022-11-04T00:40:13;10.60;99.90
53045;DHT22;38930;52.766;6.884;2022-11-04T00:42:39;10.60;99.90
53045;DHT22;38930;52.766;6.884;2022-11-04T00:45:05;10.60;99.90
53045;DHT22;38930;52.766;6.884;2022-11-04T00:47:31;10.60;99.90
53045;DHT22;38930;52.766;6.884;2022-11-04T00:49:57;10.50;99.90
53045;DHT22;38930;52.766;6.884;2022-11-04T00:52:22;10.50;99.90
53045;DHT22;38930;52.766;6.884;2022-11-04T00:54:48;10.50;99.90
53045;DHT22;38930;52.766;6.884;2022-11-04T00:57:14;10.50;99.90
53045;DHT22;38930;52.766;6.884;2022-11-04T00:59:40;10.50;99.90
53045;DHT22;38930;52.766;6.884;2022-11-04T01:02:07;10.50;99.90
53045;DHT22;38930;52.766;6.884;2022-11-04T01:04:33;10.40;99.90
53045;DHT22;38930;52.766;6.884;2022-11-04T01:06:59;10.40;99.90
53045;DHT22;38930;52.766;6.884;2022-11-04T01:09:25;10.40;99.90
53045;DHT22;38930;52.766;6.884;2022-11-04T01:11:51;10.40;99.90
53045;DHT22;38930;52.766;6.884;2022-11-04T01:14:17;10.50;99.90
53045;DHT22;38930;52.766;6.884;2022-11-04T01:16:42;10.40;99.90
53045;DHT22;38930;52.766;6.884;2022-11-04T01:19:09;10.30;99.90
53045;DHT22;38930;52.766;6.884;2022-11-04T01:21:34;10.30;99.90
53045;DHT22;38930;52.766;6.884;2022-11-04T01:24:00;10.30;99.90
53045;DHT22;38930;52.766;6.884;2022-11-04T01:26:27;10.30;99.90
53045;DHT22;38930;52.766;6.884;2022-11-04T01:28:54;10.30;99.90
53045;DHT22;38930;52.766;6.884;2022-11-04T01:31:23;10.20;99.90
53045;DHT22;38930;52.766;6.884;2022-11-04T01:33:50;10.60;99.90
53045;DHT22;38930;52.766;6.884;2022-11-04T01:36:17;10.20;99.90
53045;DHT22;38930;52.766;6.884;2022-11-04T01:38:42;10.20;99.90
53045;DHT22;38930;52.766;6.884;2022-11-04T01:41:19;10.10;99.90
53045;DHT22;38930;52.766;6.884;2022-11-04T01:43:54;10.10;99.90
53045;DHT22;38930;52.766;6.884;2022-11-04T01:46:44;10.10;99.90
53045;DHT22;38930;52.766;6.884;2022-11-04T01:49:31;10.10;99.90
53045;DHT22;38930;52.766;6.884;2022-11-04T01:52:09;10.10;99.90
53045;DHT22;38930;52.766;6.884;2022-11-04T01:54:38;10.10;99.90
53045;DHT22;38930;52.766;6.884;2022-11-04T01:57:08;10.10;99.90
53045;DHT22;38930;52.766;6.884;2022-11-04T01:59:38;10.10;99.90
53045;DHT22;38930;52.766;6.884;2022-11-04T02:02:05;10.10;99.90
53045;DHT22;38930;52.766;6.884;2022-11-04T02:04:32;10.10;99.90
53045;DHT22;38930;52.766;6.884;2022-11-04T02:07:06;10.20;99.90
53045;DHT22;38930;52.766;6.884;2022-11-04T02:09:35;10.20;99.90
53045;DHT22;38930;52.766;6.884;2022-11-04T02:12:01;10.20;99.90
53045;DHT22;38930;52.766;6.884;2022-11-04T02:14:47;10.20;99.90
53045;DHT22;38930;52.766;6.884;2022-11-04T02:17:28;10.30;99.90
53045;DHT22;38930;52.766;6.884;2022-11-04T02:30:47;10.40;99.90
53045;DHT22;38930;52.766;6.884;2022-11-04T02:39:36;10.40;99.90
53045;DHT22;38930;52.766;6.884;2022-11-04T02:42:36;10.40;99.90
53045;DHT22;38930;52.766;6.884;2022-11-04T02:45:25;10.40;99.90
53045;DHT22;38930;52.766;6.884;2022-11-04T02:48:00;10.40;99.90
53045;DHT22;38930;52.766;6.884;2022-11-04T02:50:42;10.40;99.90
53045;DHT22;38930;52.766;6.884;2022-11-04T02:53:20;10.40;99.90
53045;DHT22;38930;52.766;6.884;2022-11-04T02:55:50;10.40;99.90
53045;DHT22;38930;52.766;6.884;2022-11-04T02:58:26;10.40;99.90
53045;DHT22;38930;52.766;6.884;2022-11-04T03:00:55;10.40;99.90
53045;DHT22;38930;52.766;6.884;2022-11-04T03:03:25;10.50;99.90
53045;DHT22;38930;52.766;6.884;2022-11-04T03:05:54;10.40;99.90
53045;DHT22;38930;52.766;6.884;2022-11-04T03:08:32;10.60;99.90
53045;DHT22;38930;52.766;6.884;2022-11-04T03:11:02;10.60;99.90
53045;DHT22;38930;52.766;6.884;2022-11-04T03:13:36;10.40;99.90
53045;DHT22;38930;52.766;6.884;2022-11-04T03:16:09;10.30;99.90
53045;DHT22;38930;52.766;6.884;2022-11-04T03:21:39;10.30;99.90
53045;DHT22;38930;52.766;6.884;2022-11-04T03:24:07;10.30;99.90
53045;DHT22;38930;52.766;6.884;2022-11-04T03:26:52;10.30;99.90
53045;DHT22;38930;52.766;6.884;2022-11-04T03:29:32;10.60;99.90
53045;DHT22;38930;52.766;6.884;2022-11-04T03:34:54;10.20;99.90
53045;DHT22;38930;52.766;6.884;2022-11-04T03:37:20;10.70;99.90
53045;DHT22;38930;52.766;6.884;2022-11-04T03:39:46;10.20;99.90
53045;DHT22;38930;52.766;6.884;2022-11-04T03:42:13;10.20;99.90
53045;DHT22;38930;52.766;6.884;2022-11-04T03:44:55;10.20;99.90
53045;DHT22;38930;52.766;6.884;2022-11-04T03:47:26;10.60;99.90
53045;DHT22;38930;52.766;6.884;2022-11-04T03:50:00;10.10;99.90
53045;DHT22;38930;52.766;6.884;2022-11-04T03:52:27;10.10;99.90
53045;DHT22;38930;52.766;6.884;2022-11-04T03:54:52;10.10;99.90
53045;DHT22;38930;52.766;6.884;2022-11-04T03:57:26;10.10;99.90
53045;DHT22;38930;52.766;6.884;2022-11-04T04:00:04;10.10;99.90
53045;DHT22;38930;52.766;6.884;2022-11-04T04:05:38;10.60;99.90
53045;DHT22;38930;52.766;6.884;2022-11-04T04:08:14;10.00;99.90
53045;DHT22;38930;52.766;6.884;2022-11-04T04:21:13;9.90;99.90
53045;DHT22;38930;52.766;6.884;2022-11-04T04:23:40;9.80;99.90
53045;DHT22;38930;52.766;6.884;2022-11-04T04:26:25;9.80;99.90
53045;DHT22;38930;52.766;6.884;2022-11-04T04:29:10;9.70;99.90
53045;DHT22;38930;52.766;6.884;2022-11-04T04:31:37;9.70;99.90
53045;DHT22;38930;52.766;6.884;2022-11-04T04:34:22;9.70;99.90
53045;DHT22;38930;52.766;6.884;2022-11-04T04:37:08;10.10;99.90
53045;DHT22;38930;52.766;6.884;2022-11-04T04:39:41;9.60;99.90
53045;DHT22;38930;52.766;6.884;2022-11-04T04:42:33;9.60;99.90
53045;DHT22;38930;52.766;6.884;2022-11-04T04:45:34;9.60;99.90
53045;DHT22;38930;52.766;6.884;2022-11-04T04:48:00;9.60;99.90
53045;DHT22;38930;52.766;6.884;2022-11-04T04:50:29;9.50;99.90
53045;DHT22;38930;52.766;6.884;2022-11-04T04:52:57;9.70;99.90
53045;DHT22;38930;52.766;6.884;2022-11-04T04:55:24;9.60;99.90
53045;DHT22;38930;52.766;6.884;2022-11-04T04:57:50;9.60;99.90
53045;DHT22;38930;52.766;6.884;2022-11-04T05:00:18;9.60;99.90
53045;DHT22;38930;52.766;6.884;2022-11-04T05:02:44;9.60;99.90
53045;DHT22;38930;52.766;6.884;2022-11-04T05:05:11;9.70;99.90
53045;DHT22;38930;52.766;6.884;2022-11-04T05:07:45;9.60;99.90
53045;DHT22;38930;52.766;6.884;2022-11-04T05:10:15;10.10;99.90
53045;DHT22;38930;52.766;6.884;2022-11-04T05:12:41;10.00;99.90
53045;DHT22;38930;52.766;6.884;2022-11-04T05:15:26;9.60;99.90
53045;DHT22;38930;52.766;6.884;2022-11-04T05:17:53;9.60;99.90
53045;DHT22;38930;52.766;6.884;2022-11-04T05:20:23;9.60;99.90
53045;DHT22;38930;52.766;6.884;2022-11-04T05:22:49;9.60;99.90
53045;DHT22;38930;52.766;6.884;2022-11-04T05:25:14;9.60;99.90
53045;DHT22;38930;52.766;6.884;2022-11-04T05:27:40;9.50;99.90
53045;DHT22;38930;52.766;6.884;2022-11-04T05:30:06;9.50;99.90
53045;DHT22;38930;52.766;6.884;2022-11-04T05:32:35;9.40;99.90
53045;DHT22;38930;52.766;6.884;2022-11-04T05:35:01;9.40;99.90
53045;DHT22;38930;52.766;6.884;2022-11-04T05:37:26;9.30;99.90
53045;DHT22;38930;52.766;6.884;2022-11-04T05:39:52;9.70;99.90
53045;DHT22;38930;52.766;6.884;2022-11-04T05:42:18;9.50;99.90
53045;DHT22;38930;52.766;6.884;2022-11-04T05:44:43;9.30;99.90
53045;DHT22;38930;52.766;6.884;2022-11-04T05:47:09;9.60;99.90
53045;DHT22;38930;52.766;6.884;2022-11-04T05:49:34;9.10;99.90
53045;DHT22;38930;52.766;6.884;2022-11-04T05:52:02;9.10;99.90
53045;DHT22;38930;52.766;6.884;2022-11-04T05:54:28;9.10;99.90
53045;DHT22;38930;52.766;6.884;2022-11-04T05:56:54;9.00;99.90
53045;DHT22;38930;52.766;6.884;2022-11-04T05:59:22;9.00;99.90
53045;DHT22;38930;52.766;6.884;2022-11-04T06:01:48;8.90;99.90
53045;DHT22;38930;52.766;6.884;2022-11-04T06:04:16;9.30;99.90
53045;DHT22;38930;52.766;6.884;2022-11-04T06:06:44;8.80;99.90
53045;DHT22;38930;52.766;6.884;2022-11-04T06:09:10;8.80;99.90
53045;DHT22;38930;52.766;6.884;2022-11-04T06:11:37;9.00;99.90
53045;DHT22;38930;52.766;6.884;2022-11-04T06:14:03;8.70;99.90
53045;DHT22;38930;52.766;6.884;2022-11-04T06:16:29;8.60;99.90
53045;DHT22;38930;52.766;6.884;2022-11-04T06:18:55;8.60;99.90
53045;DHT22;38930;52.766;6.884;2022-11-04T06:21:31;8.60;99.90
53045;DHT22;38930;52.766;6.884;2022-11-04T06:23:57;8.60;99.90
53045;DHT22;38930;52.766;6.884;2022-11-04T06:26:27;9.10;99.90
53045;DHT22;38930;52.766;6.884;2022-11-04T06:28:56;8.60;99.90
53045;DHT22;38930;52.766;6.884;2022-11-04T06:31:22;8.60;99.90
53045;DHT22;38930;52.766;6.884;2022-11-04T06:33:47;8.60;99.90
53045;DHT22;38930;52.766;6.884;2022-11-04T06:36:14;8.70;99.90
53045;DHT22;38930;52.766;6.884;2022-11-04T06:38:40;9.20;99.90
53045;DHT22;38930;52.766;6.884;2022-11-04T06:41:09;8.80;99.90
53045;DHT22;38930;52.766;6.884;2022-11-04T06:43:35;8.80;99.90
53045;DHT22;38930;52.766;6.884;2022-11-04T06:46:01;8.80;99.90
53045;DHT22;38930;52.766;6.884;2022-11-04T06:48:28;8.80;99.90
53045;DHT22;38930;52.766;6.884;2022-11-04T06:50:55;8.80;99.90
53045;DHT22;38930;52.766;6.884;2022-11-04T06:53:22;8.80;99.90
53045;DHT22;38930;52.766;6.884;2022-11-04T06:55:47;8.80;99.90
53045;DHT22;38930;52.766;6.884;2022-11-04T06:58:13;8.80;99.90
53045;DHT22;38930;52.766;6.884;2022-11-04T07:00:38;8.80;99.90
53045;DHT22;38930;52.766;6.884;2022-11-04T07:03:04;8.80;99.90
53045;DHT22;38930;52.766;6.884;2022-11-04T07:05:32;8.70;99.90
53045;DHT22;38930;52.766;6.884;2022-11-04T07:07:58;8.70;99.90
53045;DHT22;38930;52.766;6.884;2022-11-04T07:10:23;8.70;99.90
53045;DHT22;38930;52.766;6.884;2022-11-04T07:12:49;8.70;99.90
53045;DHT22;38930;52.766;6.884;2022-11-04T07:15:14;8.70;99.90
53045;DHT22;38930;52.766;6.884;2022-11-04T07:17:40;8.60;99.90
53045;DHT22;38930;52.766;6.884;2022-11-04T07:20:06;8.70;99.90
53045;DHT22;38930;52.766;6.884;2022-11-04T07:22:32;8.70;99.90
53045;DHT22;38930;52.766;6.884;2022-11-04T07:24:57;8.70;99.90
53045;DHT22;38930;52.766;6.884;2022-11-04T07:27:23;8.70;99.90
53045;DHT22;38930;52.766;6.884;2022-11-04T07:29:48;9.20;99.90
53045;DHT22;38930;52.766;6.884;2022-11-04T07:32:14;8.70;99.90
53045;DHT22;38930;52.766;6.884;2022-11-04T07:34:40;8.70;99.90
53045;DHT22;38930;52.766;6.884;2022-11-04T07:37:05;8.70;99.90
53045;DHT22;38930;52.766;6.884;2022-11-04T07:39:31;8.60;99.90
53045;DHT22;38930;52.766;6.884;2022-11-04T07:41:56;8.60;99.90
53045;DHT22;38930;52.766;6.884;2022-11-04T07:44:22;8.60;99.90
53045;DHT22;38930;52.766;6.884;2022-11-04T07:46:48;8.70;99.90
53045;DHT22;38930;52.766;6.884;2022-11-04T07:49:14;8.70;99.90
53045;DHT22;38930;52.766;6.884;2022-11-04T07:51:40;8.70;99.90
53045;DHT22;38930;52.766;6.884;2022-11-04T07:54:05;8.80;99.90
53045;DHT22;38930;52.766;6.884;2022-11-04T07:56:31;8.80;99.90
53045;DHT22;38930;52.766;6.884;2022-11-04T07:58:56;8.80;99.90
53045;DHT22;38930;52.766;6.884;2022-11-04T08:01:23;8.90;99.90
53045;DHT22;38930;52.766;6.884;2022-11-04T08:03:49;8.90;99.90
53045;DHT22;38930;52.766;6.884;2022-11-04T08:06:17;9.00;99.90
53045;DHT22;38930;52.766;6.884;2022-11-04T08:08:43;9.10;99.90
53045;DHT22;38930;52.766;6.884;2022-11-04T08:11:17;9.10;99.90
53045;DHT22;38930;52.766;6.884;2022-11-04T08:13:43;9.20;99.90
53045;DHT22;38930;52.766;6.884;2022-11-04T08:16:14;9.20;99.90
53045;DHT22;38930;52.766;6.884;2022-11-04T08:18:41;9.30;99.90
53045;DHT22;38930;52.766;6.884;2022-11-04T08:21:08;9.40;99.90
53045;DHT22;38930;52.766;6.884;2022-11-04T08:23:33;9.60;99.90
53045;DHT22;38930;52.766;6.884;2022-11-04T08:25:59;9.60;99.90
53045;DHT22;38930;52.766;6.884;2022-11-04T08:28:25;9.60;99.90
53045;DHT22;38930;52.766;6.884;2022-11-04T08:33:24;10.00;99.90
53045;DHT22;38930;52.766;6.884;2022-11-04T08:35:51;9.60;99.90
53045;DHT22;38930;52.766;6.884;2022-11-04T08:38:18;9.50;99.90
53045;DHT22;38930;52.766;6.884;2022-11-04T08:40:44;9.60;99.90
53045;DHT22;38930;52.766;6.884;2022-11-04T08:43:09;9.60;99.90
53045;DHT22;38930;52.766;6.884;2022-11-04T08:45:44;9.70;99.90
53045;DHT22;38930;52.766;6.884;2022-11-04T08:48:10;9.70;99.90
53045;DHT22;38930;52.766;6.884;2022-11-04T08:50:36;9.80;99.90
53045;DHT22;38930;52.766;6.884;2022-11-04T08:53:02;9.90;99.90
53045;DHT22;38930;52.766;6.884;2022-11-04T08:55:29;9.90;99.90
53045;DHT22;38930;52.766;6.884;2022-11-04T08:57:55;10.40;99.90
53045;DHT22;38930;52.766;6.884;2022-11-04T09:00:21;9.90;99.90
53045;DHT22;38930;52.766;6.884;2022-11-04T09:02:47;10.10;99.90
53045;DHT22;38930;52.766;6.884;2022-11-04T09:05:13;10.00;99.90
53045;DHT22;38930;52.766;6.884;2022-11-04T09:07:40;10.00;99.90
53045;DHT22;38930;52.766;6.884;2022-11-04T09:10:08;10.50;99.90
53045;DHT22;38930;52.766;6.884;2022-11-04T09:12:33;10.10;99.90
53045;DHT22;38930;52.766;6.884;2022-11-04T09:14:59;10.20;99.90
53045;DHT22;38930;52.766;6.884;2022-11-04T09:17:25;10.20;99.90
53045;DHT22;38930;52.766;6.884;2022-11-04T09:19:50;10.20;99.90
53045;DHT22;38930;52.766;6.884;2022-11-04T09:22:16;10.10;99.90
53045;DHT22;38930;52.766;6.884;2022-11-04T09:24:42;10.10;99.90
53045;DHT22;38930;52.766;6.884;2022-11-04T09:27:08;10.10;99.90
53045;DHT22;38930;52.766;6.884;2022-11-04T09:29:33;10.10;99.90
53045;DHT22;38930;52.766;6.884;2022-11-04T09:32:01;10.10;99.90
53045;DHT22;38930;52.766;6.884;2022-11-04T09:34:27;10.20;99.90
53045;DHT22;38930;52.766;6.884;2022-11-04T09:36:56;10.20;99.90
53045;DHT22;38930;52.766;6.884;2022-11-04T09:39:25;10.30;99.90
53045;DHT22;38930;52.766;6.884;2022-11-04T09:44:49;10.40;99.90
53045;DHT22;38930;52.766;6.884;2022-11-04T09:47:16;10.50;99.90
53045;DHT22;38930;52.766;6.884;2022-11-04T09:49:45;10.60;99.90
53045;DHT22;38930;52.766;6.884;2022-11-04T09:52:20;10.70;99.90
53045;DHT22;38930;52.766;6.884;2022-11-04T09:57:24;10.70;99.90
53045;DHT22;38930;52.766;6.884;2022-11-04T09:59:50;10.80;99.90
53045;DHT22;38930;52.766;6.884;2022-11-04T10:05:15;10.80;99.90
53045;DHT22;38930;52.766;6.884;2022-11-04T10:11:06;10.70;99.90
53045;DHT22;38930;52.766;6.884;2022-11-04T10:13:44;10.70;99.90
53045;DHT22;38930;52.766;6.884;2022-11-04T10:16:25;10.70;99.90
53045;DHT22;38930;52.766;6.884;2022-11-04T10:18:58;10.70;99.90
53045;DHT22;38930;52.766;6.884;2022-11-04T10:22:02;10.80;99.90
53045;DHT22;38930;52.766;6.884;2022-11-04T10:27:26;11.00;99.90
53045;DHT22;38930;52.766;6.884;2022-11-04T10:29:59;11.10;99.90
53045;DHT22;38930;52.766;6.884;2022-11-04T10:37:51;11.30;99.90
53045;DHT22;38930;52.766;6.884;2022-11-04T10:40:30;11.70;99.90
53045;DHT22;38930;52.766;6.884;2022-11-04T10:43:02;11.30;99.90
53045;DHT22;38930;52.766;6.884;2022-11-04T10:45:47;11.30;99.90
53045;DHT22;38930;52.766;6.884;2022-11-04T10:48:24;11.20;99.90
53045;DHT22;38930;52.766;6.884;2022-11-04T10:50:54;11.70;99.90
53045;DHT22;38930;52.766;6.884;2022-11-04T10:53:26;11.20;99.90
53045;DHT22;38930;52.766;6.884;2022-11-04T10:58:45;11.30;99.90
53045;DHT22;38930;52.766;6.884;2022-11-04T11:01:30;11.40;99.90
53045;DHT22;38930;52.766;6.884;2022-11-04T11:03:56;11.50;99.90
53045;DHT22;38930;52.766;6.884;2022-11-04T11:06:31;11.50;99.90
53045;DHT22;38930;52.766;6.884;2022-11-04T11:11:42;11.70;99.90
53045;DHT22;38930;52.766;6.884;2022-11-04T11:14:29;11.70;99.90
53045;DHT22;38930;52.766;6.884;2022-11-04T11:16:57;11.70;99.90
53045;DHT22;38930;52.766;6.884;2022-11-04T11:19:55;11.70;99.90
53045;DHT22;38930;52.766;6.884;2022-11-04T11:22:38;11.70;99.90
53045;DHT22;38930;52.766;6.884;2022-11-04T11:25:22;11.90;99.90
53045;DHT22;38930;52.766;6.884;2022-11-04T11:28:08;12.00;99.90
53045;DHT22;38930;52.766;6.884;2022-11-04T11:35:57;12.30;99.90
53045;DHT22;38930;52.766;6.884;2022-11-04T11:38:26;12.40;99.90
53045;DHT22;38930;52.766;6.884;2022-11-04T11:41:02;12.40;99.90
53045;DHT22;38930;52.766;6.884;2022-11-04T11:43:31;12.40;99.90
53045;DHT22;38930;52.766;6.884;2022-11-04T11:45:58;12.80;99.90
53045;DHT22;38930;52.766;6.884;2022-11-04T11:48:42;12.40;99.90
53045;DHT22;38930;52.766;6.884;2022-11-04T11:51:12;12.40;99.90
53045;DHT22;38930;52.766;6.884;2022-11-04T11:53:40;12.20;99.90
53045;DHT22;38930;52.766;6.884;2022-11-04T11:56:32;12.30;99.90
53045;DHT22;38930;52.766;6.884;2022-11-04T12:02:12;12.30;99.90
53045;DHT22;38930;52.766;6.884;2022-11-04T12:04:41;12.20;99.90
53045;DHT22;38930;52.766;6.884;2022-11-04T12:07:33;12.50;99.90
53045;DHT22;38930;52.766;6.884;2022-11-04T12:10:19;12.40;99.90
53045;DHT22;38930;52.766;6.884;2022-11-04T12:18:17;12.40;99.90
53045;DHT22;38930;52.766;6.884;2022-11-04T12:26:15;12.50;99.90
53045;DHT22;38930;52.766;6.884;2022-11-04T12:31:46;12.50;99.90
53045;DHT22;38930;52.766;6.884;2022-11-04T12:37:53;12.40;99.90
53045;DHT22;38930;52.766;6.884;2022-11-04T12:40:32;12.40;99.90
53045;DHT22;38930;52.766;6.884;2022-11-04T12:43:24;12.40;99.90
53045;DHT22;38930;52.766;6.884;2022-11-04T12:46:13;12.50;99.90
53045;DHT22;38930;52.766;6.884;2022-11-04T12:48:57;12.60;99.90
53045;DHT22;38930;52.766;6.884;2022-11-04T12:56:37;12.80;99.90
53045;DHT22;38930;52.766;6.884;2022-11-04T12:59:32;12.80;99.90
53045;DHT22;38930;52.766;6.884;2022-11-04T13:02:21;12.90;99.90
53045;DHT22;38930;52.766;6.884;2022-11-04T13:05:15;13.10;99.90
53045;DHT22;38930;52.766;6.884;2022-11-04T13:10:42;13.10;99.90
53045;DHT22;38930;52.766;6.884;2022-11-04T13:13:11;12.80;99.90
53045;DHT22;38930;52.766;6.884;2022-11-04T13:15:46;12.70;99.90
53045;DHT22;38930;52.766;6.884;2022-11-04T13:18:18;12.30;99.90
53045;DHT22;38930;52.766;6.884;2022-11-04T13:20:47;12.00;99.90
53045;DHT22;38930;52.766;6.884;2022-11-04T13:23:26;11.90;99.90
53045;DHT22;38930;52.766;6.884;2022-11-04T13:25:54;11.70;99.90
53045;DHT22;38930;52.766;6.884;2022-11-04T13:28:22;11.60;99.90
53045;DHT22;38930;52.766;6.884;2022-11-04T13:31:06;11.40;99.90
53045;DHT22;38930;52.766;6.884;2022-11-04T13:33:53;11.30;99.90
53045;DHT22;38930;52.766;6.884;2022-11-04T13:36:29;11.20;99.90
53045;DHT22;38930;52.766;6.884;2022-11-04T13:39:04;11.50;99.90
53045;DHT22;38930;52.766;6.884;2022-11-04T13:44:14;10.70;99.90
53045;DHT22;38930;52.766;6.884;2022-11-04T13:46:48;10.60;99.90
53045;DHT22;38930;52.766;6.884;2022-11-04T13:49:20;10.60;99.90
53045;DHT22;38930;52.766;6.884;2022-11-04T13:52:08;11.00;99.90
53045;DHT22;38930;52.766;6.884;2022-11-04T13:54:36;10.50;99.90
53045;DHT22;38930;52.766;6.884;2022-11-04T13:57:10;10.50;99.90
53045;DHT22;38930;52.766;6.884;2022-11-04T13:59:37;10.60;99.90
53045;DHT22;38930;52.766;6.884;2022-11-04T14:04:42;10.50;99.90
53045;DHT22;38930;52.766;6.884;2022-11-04T14:07:13;10.60;99.90
53045;DHT22;38930;52.766;6.884;2022-11-04T14:14:53;10.50;99.90
53045;DHT22;38930;52.766;6.884;2022-11-04T14:20:27;10.50;99.90
53045;DHT22;38930;52.766;6.884;2022-11-04T14:23:01;10.50;99.90
53045;DHT22;38930;52.766;6.884;2022-11-04T14:25:57;10.50;99.90
53045;DHT22;38930;52.766;6.884;2022-11-04T14:28:26;10.50;99.90
53045;DHT22;38930;52.766;6.884;2022-11-04T14:31:09;10.40;99.90
53045;DHT22;38930;52.766;6.884;2022-11-04T14:39:21;10.40;99.90
53045;DHT22;38930;52.766;6.884;2022-11-04T14:47:01;10.30;99.90
53045;DHT22;38930;52.766;6.884;2022-11-04T14:49:39;10.30;99.90
53045;DHT22;38930;52.766;6.884;2022-11-04T14:52:36;10.50;99.90
53045;DHT22;38930;52.766;6.884;2022-11-04T14:57:42;10.20;99.90
53045;DHT22;38930;52.766;6.884;2022-11-04T15:02:48;10.10;99.90
53045;DHT22;38930;52.766;6.884;2022-11-04T15:05:25;10.00;99.90
53045;DHT22;38930;52.766;6.884;2022-11-04T15:07:50;9.90;99.90
53045;DHT22;38930;52.766;6.884;2022-11-04T15:10:22;9.90;99.90
53045;DHT22;38930;52.766;6.884;2022-11-04T15:12:50;9.80;99.90
53045;DHT22;38930;52.766;6.884;2022-11-04T15:17:52;9.70;99.90
53045;DHT22;38930;52.766;6.884;2022-11-04T15:20:23;9.70;99.90
53045;DHT22;38930;52.766;6.884;2022-11-04T15:22:49;9.60;99.90
53045;DHT22;38930;52.766;6.884;2022-11-04T15:25:15;9.50;99.90
53045;DHT22;38930;52.766;6.884;2022-11-04T15:27:42;9.50;99.90
53045;DHT22;38930;52.766;6.884;2022-11-04T15:30:24;9.50;99.90
53045;DHT22;38930;52.766;6.884;2022-11-04T15:33:03;9.40;99.90
53045;DHT22;38930;52.766;6.884;2022-11-04T15:35:31;9.40;99.90
53045;DHT22;38930;52.766;6.884;2022-11-04T15:37:59;9.30;99.90
53045;DHT22;38930;52.766;6.884;2022-11-04T15:40:30;9.30;99.90
53045;DHT22;38930;52.766;6.884;2022-11-04T15:43:01;9.50;99.90
53045;DHT22;38930;52.766;6.884;2022-11-04T15:50:56;9.10;99.90
53045;DHT22;38930;52.766;6.884;2022-11-04T15:53:25;9.00;99.90
53045;DHT22;38930;52.766;6.884;2022-11-04T15:55:51;9.00;99.90
53045;DHT22;38930;52.766;6.884;2022-11-04T15:58:17;9.00;99.90
53045;DHT22;38930;52.766;6.884;2022-11-04T16:00:51;8.90;99.90
53045;DHT22;38930;52.766;6.884;2022-11-04T16:03:18;8.90;99.90
53045;DHT22;38930;52.766;6.884;2022-11-04T16:06:02;8.90;99.90
53045;DHT22;38930;52.766;6.884;2022-11-04T16:08:30;8.90;99.90
53045;DHT22;38930;52.766;6.884;2022-11-04T16:11:12;8.80;99.90
53045;DHT22;38930;52.766;6.884;2022-11-04T16:13:39;8.80;99.90
53045;DHT22;38930;52.766;6.884;2022-11-04T16:16:19;8.80;99.90
53045;DHT22;38930;52.766;6.884;2022-11-04T16:18:58;8.80;99.90
53045;DHT22;38930;52.766;6.884;2022-11-04T16:21:30;8.80;99.90
53045;DHT22;38930;52.766;6.884;2022-11-04T16:26:27;8.80;99.90
53045;DHT22;38930;52.766;6.884;2022-11-04T16:28:56;8.80;99.90
53045;DHT22;38930;52.766;6.884;2022-11-04T16:31:25;8.70;99.90
53045;DHT22;38930;52.766;6.884;2022-11-04T16:33:51;8.70;99.90
53045;DHT22;38930;52.766;6.884;2022-11-04T16:36:17;8.60;99.90
53045;DHT22;38930;52.766;6.884;2022-11-04T16:38:59;8.60;99.90
53045;DHT22;38930;52.766;6.884;2022-11-04T16:41:28;8.60;99.90
53045;DHT22;38930;52.766;6.884;2022-11-04T16:43:54;8.50;99.90
53045;DHT22;38930;52.766;6.884;2022-11-04T16:46:20;8.50;99.90
53045;DHT22;38930;52.766;6.884;2022-11-04T16:48:47;8.50;99.90
53045;DHT22;38930;52.766;6.884;2022-11-04T16:51:18;8.50;99.90
53045;DHT22;38930;52.766;6.884;2022-11-04T16:53:47;8.40;99.90
53045;DHT22;38930;52.766;6.884;2022-11-04T16:56:15;8.40;99.90
53045;DHT22;38930;52.766;6.884;2022-11-04T16:58:41;8.40;99.90
53045;DHT22;38930;52.766;6.884;2022-11-04T17:01:11;8.40;99.90
53045;DHT22;38930;52.766;6.884;2022-11-04T17:03:40;8.30;99.90
53045;DHT22;38930;52.766;6.884;2022-11-04T17:06:08;8.30;99.90
53045;DHT22;38930;52.766;6.884;2022-11-04T17:08:34;8.30;99.90
53045;DHT22;38930;52.766;6.884;2022-11-04T17:11:00;8.50;99.90
53045;DHT22;38930;52.766;6.884;2022-11-04T17:13:26;8.30;99.90
53045;DHT22;38930;52.766;6.884;2022-11-04T17:15:51;8.30;99.90
53045;DHT22;38930;52.766;6.884;2022-11-04T17:18:17;8.40;99.90
53045;DHT22;38930;52.766;6.884;2022-11-04T17:20:53;8.20;99.90
53045;DHT22;38930;52.766;6.884;2022-11-04T17:23:20;8.20;99.90
53045;DHT22;38930;52.766;6.884;2022-11-04T17:25:46;8.30;99.90
53045;DHT22;38930;52.766;6.884;2022-11-04T17:28:12;8.20;99.90
53045;DHT22;38930;52.766;6.884;2022-11-04T17:30:39;8.20;99.90
53045;DHT22;38930;52.766;6.884;2022-11-04T17:33:05;8.60;99.90
53045;DHT22;38930;52.766;6.884;2022-11-04T17:35:33;8.60;99.90
53045;DHT22;38930;52.766;6.884;2022-11-04T17:38:01;8.10;99.90
53045;DHT22;38930;52.766;6.884;2022-11-04T17:40:26;8.10;99.90
53045;DHT22;38930;52.766;6.884;2022-11-04T17:42:52;8.00;99.90
53045;DHT22;38930;52.766;6.884;2022-11-04T17:45:36;8.00;99.90
53045;DHT22;38930;52.766;6.884;2022-11-04T17:48:04;8.00;99.90
53045;DHT22;38930;52.766;6.884;2022-11-04T17:50:30;8.00;99.90
53045;DHT22;38930;52.766;6.884;2022-11-04T17:52:56;8.00;99.90
53045;DHT22;38930;52.766;6.884;2022-11-04T17:55:22;8.00;99.90
53045;DHT22;38930;52.766;6.884;2022-11-04T17:57:48;8.00;99.90
53045;DHT22;38930;52.766;6.884;2022-11-04T18:00:13;8.00;99.90
53045;DHT22;38930;52.766;6.884;2022-11-04T18:02:40;7.90;99.90
53045;DHT22;38930;52.766;6.884;2022-11-04T18:05:06;7.90;99.90
53045;DHT22;38930;52.766;6.884;2022-11-04T18:07:33;7.90;99.90
53045;DHT22;38930;52.766;6.884;2022-11-04T18:09:59;7.90;99.90
53045;DHT22;38930;52.766;6.884;2022-11-04T18:12:31;7.80;99.90
53045;DHT22;38930;52.766;6.884;2022-11-04T18:15:10;7.80;99.90
53045;DHT22;38930;52.766;6.884;2022-11-04T18:17:42;7.80;99.90
53045;DHT22;38930;52.766;6.884;2022-11-04T18:20:13;7.70;99.90